createdAt,value
2019-04-28T00:03:14.412Z,5.92
2019-04-28T00:08:20.810Z,5.92
2019-04-28T00:13:26.076Z,5.90
2019-04-28T00:18:32.852Z,5.86
2019-04-28T00:24:01.710Z,5.84
2019-04-28T00:29:07.072Z,5.85
2019-04-28T00:34:12.295Z,5.86
2019-04-28T00:39:17.809Z,5.84
2019-04-28T00:44:23.942Z,5.87
2019-04-28T00:49:47.337Z,5.86
2019-04-28T00:54:53.865Z,5.83
2019-04-28T00:59:59.461Z,5.82
2019-04-28T01:05:05.408Z,5.82
2019-04-28T01:10:11.549Z,5.82
2019-04-28T01:15:36.880Z,5.82
2019-04-28T01:20:42.341Z,5.80
2019-04-28T01:25:47.503Z,5.81
2019-04-28T01:31:10.354Z,5.77
2019-04-28T01:36:15.516Z,5.78
2019-04-28T01:41:20.605Z,5.78
2019-04-28T01:46:26.038Z,5.77
2019-04-28T01:51:31.272Z,5.78
2019-04-28T01:56:36.731Z,5.79
2019-04-28T02:01:42.187Z,5.77
2019-04-28T02:06:47.429Z,5.76
2019-04-28T02:11:52.863Z,5.77
2019-04-28T02:17:00.359Z,5.74
2019-04-28T02:22:23.553Z,5.75
2019-04-28T02:27:30.194Z,5.69
2019-04-28T02:32:35.879Z,5.69
2019-04-28T02:37:41.092Z,5.64
2019-04-28T02:42:46.327Z,5.56
2019-04-28T02:47:53.194Z,5.53
2019-04-28T02:53:14.553Z,5.47
2019-04-28T02:58:22.395Z,5.39
2019-04-28T03:03:26.938Z,5.35
2019-04-28T03:08:32.586Z,5.36
2019-04-28T03:13:37.730Z,5.29
2019-04-28T03:18:42.872Z,5.25
2019-04-28T03:23:48.028Z,5.27
2019-04-28T03:29:01.386Z,5.30
2019-04-28T03:34:07.914Z,5.27
2019-04-28T03:39:13.061Z,5.28
2019-04-28T03:44:20.616Z,5.25
2019-04-28T03:49:32.553Z,5.25
2019-04-28T03:54:40.684Z,5.25
2019-04-28T03:59:44.678Z,5.28
2019-04-28T04:04:52.679Z,5.27
2019-04-28T04:10:06.516Z,5.24
2019-04-28T04:15:23.395Z,5.31
2019-04-28T04:20:31.059Z,5.35
2019-04-28T04:25:36.484Z,5.34
2019-04-28T04:30:41.625Z,5.37
2019-04-28T04:35:46.769Z,5.36
2019-04-28T04:40:51.939Z,5.37
2019-04-28T04:46:15.776Z,5.39
2019-04-28T04:51:21.766Z,5.41
2019-04-28T04:56:30.207Z,5.44
2019-04-28T05:02:02.109Z,5.46
2019-04-28T05:07:07.695Z,5.49
2019-04-28T05:12:13.255Z,5.50
2019-04-28T05:17:20.310Z,5.54
2019-04-28T05:22:27.221Z,5.55
2019-04-28T05:27:32.664Z,5.55
2019-04-28T05:32:44.725Z,5.54
2019-04-28T05:37:45.130Z,5.55
2019-04-28T05:43:00.896Z,5.59
2019-04-28T05:48:08.953Z,5.62
2019-04-28T05:53:25.546Z,5.64
2019-04-28T05:58:40.172Z,5.60
2019-04-28T06:03:46.408Z,5.52
2019-04-28T06:09:06.495Z,5.55
2019-04-28T06:14:11.665Z,5.52
2019-04-28T06:19:17.184Z,5.51
2019-04-28T06:24:23.930Z,5.58
2019-04-28T06:29:29.449Z,5.66
2019-04-28T06:34:34.615Z,5.63
2019-04-28T06:39:39.913Z,5.55
2019-04-28T06:44:46.773Z,5.38
2019-04-28T06:49:52.028Z,5.36
2019-04-28T06:54:58.011Z,5.39
2019-04-28T07:00:05.520Z,5.43
2019-04-28T07:05:10.972Z,5.58
2019-04-28T07:10:16.645Z,5.81
2019-04-28T07:15:22.745Z,6.02
2019-04-28T07:20:53.298Z,6.13
2019-04-28T07:25:58.789Z,6.30
2019-04-28T07:31:04.303Z,6.46
2019-04-28T07:36:09.536Z,6.55
2019-04-28T07:41:14.698Z,6.72
2019-04-28T07:46:19.844Z,6.69
2019-04-28T07:51:27.778Z,6.73
2019-04-28T07:56:33.606Z,6.83
2019-04-28T08:01:39.179Z,6.89
2019-04-28T08:06:44.761Z,7.06
2019-04-28T08:11:50.000Z,7.18
2019-04-28T08:16:55.619Z,7.29
2019-04-28T08:22:00.860Z,7.33
2019-04-28T08:27:06.157Z,7.43
2019-04-28T08:32:33.526Z,7.49
2019-04-28T08:37:39.250Z,7.67
2019-04-28T08:42:44.500Z,7.76
2019-04-28T08:47:50.030Z,7.80
2019-04-28T08:52:55.264Z,7.68
2019-04-28T08:58:00.420Z,8.05
2019-04-28T09:03:06.291Z,8.15
2019-04-28T09:08:11.529Z,7.93
2019-04-28T09:13:16.696Z,7.55
2019-04-28T09:18:22.345Z,7.48
2019-04-28T09:23:27.506Z,7.51
2019-04-28T09:28:32.756Z,7.62
2019-04-28T09:33:38.008Z,7.86
2019-04-28T09:38:43.612Z,8.06
2019-04-28T09:44:05.794Z,8.16
2019-04-28T09:49:11.402Z,8.22
2019-04-28T09:54:17.069Z,8.20
2019-04-28T09:59:22.898Z,7.91
2019-04-28T10:04:40.641Z,7.79
2019-04-28T10:09:35.438Z,7.75
2019-04-28T10:14:40.681Z,7.82
2019-04-28T10:19:45.922Z,7.99
2019-04-28T10:24:51.160Z,8.38
2019-04-28T10:29:56.760Z,8.63
2019-04-28T10:35:02.130Z,8.78
2019-04-28T10:40:21.435Z,9.08
2019-04-28T10:45:28.705Z,9.23
2019-04-28T10:50:33.933Z,9.44
2019-04-28T10:55:39.177Z,9.34
2019-04-28T11:00:44.419Z,9.39
2019-04-28T11:05:50.068Z,9.71
2019-04-28T11:10:56.102Z,9.61
2019-04-28T11:16:01.362Z,9.95
2019-04-28T11:21:07.084Z,10.20
2019-04-28T11:26:12.718Z,10.29
2019-04-28T11:31:18.584Z,10.38
2019-04-28T11:36:24.275Z,10.67
2019-04-28T11:41:29.534Z,10.51
2019-04-28T11:46:34.783Z,10.78
2019-04-28T11:51:40.885Z,10.81
2019-04-28T11:56:46.127Z,11.12
2019-04-28T12:01:51.786Z,10.61
2019-04-28T12:06:57.035Z,10.73
2019-04-28T12:12:03.083Z,10.77
2019-04-28T12:17:26.813Z,10.59
2019-04-28T12:22:33.170Z,10.46
2019-04-28T12:27:38.427Z,10.59
2019-04-28T12:32:44.054Z,10.66
2019-04-28T12:37:49.381Z,10.77
2019-04-28T12:42:54.923Z,10.88
2019-04-28T12:48:00.157Z,10.95
2019-04-28T12:53:06.081Z,11.25
2019-04-28T12:58:11.367Z,11.84
2019-04-28T13:03:27.688Z,12.58
2019-04-28T13:08:33.268Z,12.34
2019-04-28T13:13:38.605Z,12.42
2019-04-28T13:18:43.848Z,12.29
2019-04-28T13:23:49.084Z,11.79
2019-04-28T13:28:55.389Z,10.78
2019-04-28T13:34:02.670Z,10.30
2019-04-28T13:39:11.472Z,10.03
2019-04-28T13:44:36.095Z,9.77
2019-04-28T13:49:53.467Z,9.31
2019-04-28T13:55:07.904Z,8.90
2019-04-28T14:00:14.898Z,8.03
2019-04-28T14:05:39.172Z,7.62
2019-04-28T14:10:44.697Z,7.28
2019-04-28T14:15:51.074Z,7.13
2019-04-28T14:20:56.318Z,7.05
2019-04-28T14:26:01.595Z,7.04
2019-04-28T14:31:07.108Z,7.18
2019-04-28T14:36:12.279Z,7.42
2019-04-28T14:41:17.784Z,7.84
2019-04-28T14:46:23.331Z,8.14
2019-04-28T14:51:28.999Z,8.26
2019-04-28T14:56:34.254Z,8.61
2019-04-28T15:02:10.604Z,8.95
2019-04-28T15:07:35.342Z,9.05
2019-04-28T15:12:40.554Z,9.35
2019-04-28T15:17:46.108Z,9.72
2019-04-28T15:22:51.332Z,9.87
2019-04-28T15:27:56.602Z,10.07
2019-04-28T15:33:02.478Z,10.23
2019-04-28T15:38:08.195Z,10.97
2019-04-28T15:43:13.437Z,11.89
2019-04-28T15:48:18.886Z,12.95
2019-04-28T15:53:24.606Z,13.06
2019-04-28T15:58:31.797Z,12.88
2019-04-28T16:03:37.547Z,13.43
2019-04-28T16:08:43.161Z,14.01
2019-04-28T16:13:48.453Z,13.97
2019-04-28T16:18:53.766Z,14.70
2019-04-28T16:23:59.093Z,14.48
2019-04-28T16:29:06.107Z,14.61
2019-04-28T16:34:12.335Z,14.44
2019-04-28T16:39:17.977Z,14.36
2019-04-28T16:44:23.195Z,13.96
2019-04-28T16:49:29.520Z,13.86
2019-04-28T16:54:34.837Z,13.65
2019-04-28T17:00:08.803Z,13.92
2019-04-28T17:05:16.042Z,14.39
2019-04-28T17:10:22.432Z,13.67
2019-04-28T17:15:30.221Z,13.98
2019-04-28T17:20:34.914Z,13.99
2019-04-28T17:25:40.306Z,14.10
2019-04-28T17:30:45.553Z,14.37
2019-04-28T17:35:51.866Z,14.11
2019-04-28T17:40:57.276Z,13.85
2019-04-28T17:46:02.696Z,13.19
2019-04-28T17:51:08.979Z,12.68
2019-04-28T17:56:14.349Z,12.38
2019-04-28T18:01:54.939Z,12.13
2019-04-28T18:07:08.016Z,11.78
2019-04-28T18:12:13.286Z,11.54
2019-04-28T18:17:46.563Z,11.27
2019-04-28T18:22:51.816Z,11.05
2019-04-28T18:27:57.082Z,10.83
2019-04-28T18:33:31.365Z,10.44
2019-04-28T18:38:48.014Z,10.39
2019-04-28T18:44:06.308Z,10.08
2019-04-28T18:49:11.660Z,9.87
2019-04-28T18:54:17.821Z,9.66
2019-04-28T18:59:24.386Z,9.31
2019-04-28T19:04:29.784Z,9.07
2019-04-28T19:09:46.147Z,8.94
2019-04-28T19:15:09.543Z,8.86
2019-04-28T19:20:15.126Z,8.81
2019-04-28T19:25:20.801Z,8.61
2019-04-28T19:30:26.513Z,8.53
2019-04-28T19:35:31.757Z,8.41
2019-04-28T19:40:37.987Z,8.27
2019-04-28T19:45:45.012Z,8.24
2019-04-28T19:50:50.983Z,8.24
2019-04-28T19:56:08.893Z,8.16
2019-04-28T20:01:19.648Z,8.02
2019-04-28T20:06:26.320Z,7.86
2019-04-28T20:11:31.592Z,7.78
2019-04-28T20:16:36.762Z,7.55
2019-04-28T20:21:43.099Z,7.54
2019-04-28T20:26:49.705Z,7.53
2019-04-28T20:31:55.011Z,7.41
2019-04-28T20:37:25.408Z,7.34
2019-04-28T20:43:01.861Z,7.19
2019-04-28T20:48:05.910Z,7.18
2019-04-28T20:53:11.552Z,7.09
2019-04-28T20:58:18.461Z,6.97
2019-04-28T21:03:24.492Z,6.91
2019-04-28T21:08:29.714Z,6.95
2019-04-28T21:13:34.958Z,6.90
2019-04-28T21:18:40.551Z,6.86
2019-04-28T21:23:45.716Z,6.75
2019-04-28T21:28:51.948Z,6.70
2019-04-28T21:33:57.649Z,6.67
2019-04-28T21:39:03.691Z,6.58
2019-04-28T21:44:31.668Z,6.58
2019-04-28T21:49:39.253Z,6.50
2019-04-28T21:54:44.796Z,6.46
2019-04-28T21:59:50.272Z,6.40
2019-04-28T22:04:56.087Z,6.32
2019-04-28T22:10:01.403Z,6.26
2019-04-28T22:15:06.742Z,6.13
2019-04-28T22:20:12.800Z,6.13
2019-04-28T22:25:21.025Z,6.11
2019-04-28T22:30:26.186Z,6.08
2019-04-28T22:35:31.730Z,5.94
2019-04-28T22:40:36.974Z,5.90
2019-04-28T22:45:42.495Z,5.83
2019-04-28T22:50:48.359Z,5.77
2019-04-28T22:56:10.659Z,5.56
2019-04-28T23:01:44.389Z,5.56
2019-04-28T23:06:50.668Z,5.47
2019-04-28T23:11:56.189Z,5.47
2019-04-28T23:17:01.657Z,5.37
2019-04-28T23:22:46.047Z,5.35
2019-04-28T23:27:39.387Z,5.38
2019-04-28T23:32:45.628Z,5.32
2019-04-28T23:37:50.846Z,5.31
2019-04-28T23:43:01.261Z,5.29
2019-04-28T23:48:07.209Z,5.21
2019-04-28T23:53:15.327Z,5.22
2019-04-28T23:58:20.462Z,5.12
